createdAt,value
2018-10-05T00:01:40.896Z,15.83
2018-10-05T00:04:09.135Z,15.50
2018-10-05T00:06:37.436Z,15.75
2018-10-05T00:09:08.526Z,15.23
2018-10-05T00:11:36.837Z,16.65
2018-10-05T00:14:05.039Z,15.45
2018-10-05T00:16:33.325Z,16.93
2018-10-05T00:19:01.512Z,17.05
2018-10-05T00:21:29.767Z,16.23
2018-10-05T00:23:57.998Z,16.62
2018-10-05T00:26:26.240Z,16.73
2018-10-05T00:28:54.462Z,16.20
2018-10-05T00:31:22.701Z,17.20
2018-10-05T00:33:50.927Z,16.65
2018-10-05T00:36:19.239Z,15.80
2018-10-05T00:38:47.654Z,16.90
2018-10-05T00:41:15.871Z,15.80
2018-10-05T00:43:44.128Z,16.32
2018-10-05T00:46:12.343Z,16.25
2018-10-05T00:48:40.687Z,16.67
2018-10-05T00:51:08.910Z,16.70
2018-10-05T00:53:37.155Z,15.72
2018-10-05T00:56:05.355Z,16.57
2018-10-05T00:58:33.553Z,15.63
2018-10-05T01:01:01.750Z,17.17
2018-10-05T01:03:29.948Z,15.18
2018-10-05T01:05:58.184Z,16.48
2018-10-05T01:08:26.780Z,17.50
2018-10-05T01:10:54.974Z,18.73
2018-10-05T01:13:23.198Z,17.05
2018-10-05T01:15:51.492Z,17.73
2018-10-05T01:18:20.151Z,17.20
2018-10-05T01:20:49.173Z,18.10
2018-10-05T01:23:17.942Z,17.90
2018-10-05T01:25:46.357Z,18.95
2018-10-05T01:28:14.646Z,18.62
2018-10-05T01:30:42.817Z,18.52
2018-10-05T01:33:11.022Z,19.10
2018-10-05T01:35:39.346Z,18.35
2018-10-05T01:38:07.528Z,17.55
2018-10-05T01:40:35.723Z,18.90
2018-10-05T01:43:03.944Z,17.60
2018-10-05T01:45:32.147Z,18.00
2018-10-05T01:48:00.410Z,17.90
2018-10-05T01:50:28.753Z,18.82
2018-10-05T01:52:57.028Z,18.10
2018-10-05T01:55:25.272Z,17.95
2018-10-05T01:57:54.008Z,18.25
2018-10-05T02:00:22.316Z,17.65
2018-10-05T02:02:50.504Z,18.62
2018-10-05T02:05:18.768Z,17.98
2018-10-05T02:07:47.103Z,18.85
2018-10-05T02:10:15.320Z,18.95
2018-10-05T02:12:43.506Z,18.27
2018-10-05T02:15:11.789Z,18.98
2018-10-05T02:17:40.040Z,18.55
2018-10-05T02:20:08.318Z,18.65
2018-10-05T02:22:36.535Z,17.95
2018-10-05T02:25:04.736Z,18.57
2018-10-05T02:27:33.057Z,18.33
2018-10-05T02:30:01.280Z,18.92
2018-10-05T02:32:29.552Z,19.90
2018-10-05T02:34:57.807Z,19.77
2018-10-05T02:37:26.091Z,18.48
2018-10-05T02:39:54.401Z,19.55
2018-10-05T02:42:22.647Z,18.92
2018-10-05T02:44:50.890Z,19.95
2018-10-05T02:47:19.224Z,20.25
2018-10-05T02:49:47.567Z,20.75
2018-10-05T02:52:15.779Z,19.92
2018-10-05T02:54:44.018Z,20.25
2018-10-05T02:57:12.262Z,20.90
2018-10-05T02:59:40.535Z,21.05
2018-10-05T03:02:27.712Z,20.05
2018-10-05T03:04:55.992Z,20.40
2018-10-05T03:07:26.928Z,21.45
2018-10-05T03:09:56.339Z,20.62
2018-10-05T03:12:24.577Z,20.17
2018-10-05T03:14:53.004Z,20.30
2018-10-05T03:17:21.447Z,19.17
2018-10-05T03:19:50.019Z,21.15
2018-10-05T03:22:18.255Z,22.32
2018-10-05T03:24:46.526Z,19.60
2018-10-05T03:27:14.932Z,21.77
2018-10-05T03:29:43.232Z,20.17
2018-10-05T03:32:11.663Z,20.17
2018-10-05T03:34:40.365Z,21.23
2018-10-05T03:37:08.904Z,19.27
2018-10-05T03:39:37.404Z,19.50
2018-10-05T03:42:05.862Z,20.50
2018-10-05T03:44:34.076Z,21.10
2018-10-05T03:47:02.393Z,20.30
2018-10-05T03:49:30.680Z,20.57
2018-10-05T03:51:59.478Z,19.95
2018-10-05T03:54:28.024Z,22.20
2018-10-05T03:56:56.503Z,21.15
2018-10-05T03:59:24.777Z,20.20
2018-10-05T04:01:53.073Z,21.70
2018-10-05T04:04:21.386Z,19.77
2018-10-05T04:06:50.899Z,21.62
2018-10-05T04:09:19.324Z,22.52
2018-10-05T04:11:47.632Z,20.70
2018-10-05T04:14:15.972Z,21.00
2018-10-05T04:16:44.205Z,20.52
2018-10-05T04:19:12.449Z,21.85
2018-10-05T04:21:41.923Z,19.70
2018-10-05T04:24:10.718Z,20.10
2018-10-05T04:26:39.170Z,19.70
2018-10-05T04:29:07.418Z,20.90
2018-10-05T04:31:35.678Z,19.95
2018-10-05T04:34:03.929Z,20.70
2018-10-05T04:36:32.362Z,19.00
2018-10-05T04:39:00.648Z,19.17
2018-10-05T04:41:29.075Z,18.60
2018-10-05T04:43:57.615Z,19.32
2018-10-05T04:46:25.962Z,18.70
2018-10-05T04:48:54.273Z,19.67
2018-10-05T04:51:22.626Z,18.98
2018-10-05T04:53:51.058Z,17.65
2018-10-05T04:56:19.287Z,18.35
2018-10-05T04:58:47.511Z,17.60
2018-10-05T05:01:15.788Z,17.90
2018-10-05T05:03:44.059Z,17.40
2018-10-05T05:06:12.397Z,17.35
2018-10-05T05:08:40.715Z,17.87
2018-10-05T05:11:09.144Z,18.52
2018-10-05T05:13:37.319Z,17.95
2018-10-05T05:16:06.983Z,17.75
2018-10-05T05:18:35.256Z,18.57
2018-10-05T05:21:03.531Z,18.25
2018-10-05T05:23:31.807Z,18.27
2018-10-05T05:26:00.343Z,17.92
2018-10-05T05:28:29.115Z,17.42
2018-10-05T05:30:57.699Z,17.30
2018-10-05T05:33:25.902Z,17.15
2018-10-05T05:35:54.145Z,16.80
2018-10-05T05:38:22.336Z,17.17
2018-10-05T05:40:50.802Z,17.62
2018-10-05T05:43:20.204Z,17.00
2018-10-05T05:45:49.201Z,16.52
2018-10-05T05:48:17.996Z,17.70
2018-10-05T05:50:46.168Z,16.62
2018-10-05T05:53:14.408Z,16.67
2018-10-05T05:55:42.681Z,16.85
2018-10-05T05:58:11.201Z,15.80
2018-10-05T06:00:39.629Z,15.43
2018-10-05T06:03:08.124Z,16.27
2018-10-05T06:05:36.357Z,16.07
2018-10-05T06:08:04.695Z,17.07
2018-10-05T06:10:32.974Z,15.13
2018-10-05T06:13:01.178Z,15.72
2018-10-05T06:15:30.050Z,15.53
2018-10-05T06:17:58.319Z,14.15
2018-10-05T06:20:26.642Z,14.30
2018-10-05T06:22:54.893Z,14.85
2018-10-05T06:25:23.148Z,14.53
2018-10-05T06:27:52.506Z,14.28
2018-10-05T06:30:20.782Z,15.50
2018-10-05T06:32:50.113Z,14.80
2018-10-05T06:35:19.098Z,14.75
2018-10-05T06:37:47.395Z,14.87
2018-10-05T06:40:15.624Z,16.82
2018-10-05T06:42:43.907Z,14.80
2018-10-05T06:45:12.208Z,14.20
2018-10-05T06:47:40.604Z,13.38
2018-10-05T06:50:09.160Z,12.63
2018-10-05T06:52:37.564Z,13.32
2018-10-05T06:55:05.889Z,12.98
2018-10-05T06:57:34.143Z,13.05
2018-10-05T07:00:02.410Z,11.70
2018-10-05T07:02:30.958Z,12.85
2018-10-05T07:04:59.371Z,12.80
2018-10-05T07:07:27.906Z,14.30
2018-10-05T07:09:56.189Z,13.68
2018-10-05T07:12:24.414Z,13.38
2018-10-05T07:14:52.809Z,12.10
2018-10-05T07:17:21.248Z,13.53
2018-10-05T07:19:49.727Z,13.43
2018-10-05T07:22:18.119Z,13.35
2018-10-05T07:24:46.361Z,14.58
2018-10-05T07:27:14.629Z,13.53
2018-10-05T07:29:42.804Z,13.15
2018-10-05T07:32:11.233Z,23.70
2018-10-05T07:34:39.661Z,19.10
2018-10-05T07:37:08.301Z,14.50
2018-10-05T07:39:36.636Z,15.23
2018-10-05T07:42:05.130Z,13.83
2018-10-05T07:44:33.483Z,13.15
2018-10-05T07:47:01.672Z,12.37
2018-10-05T07:49:30.016Z,13.70
2018-10-05T07:51:58.409Z,12.33
2018-10-05T07:54:26.599Z,11.68
2018-10-05T07:56:54.842Z,13.83
2018-10-05T07:59:23.335Z,13.40
2018-10-05T08:04:31.553Z,12.37
2018-10-05T08:06:59.801Z,14.98
2018-10-05T08:09:28.170Z,11.47
2018-10-05T08:11:56.598Z,11.85
2018-10-05T08:14:24.940Z,10.10
2018-10-05T08:16:53.338Z,11.23
2018-10-05T08:19:21.942Z,10.63
2018-10-05T08:21:50.710Z,12.60
2018-10-05T08:24:18.999Z,11.90
2018-10-05T08:26:47.436Z,11.87
2018-10-05T08:29:16.254Z,13.10
2018-10-05T08:31:44.952Z,13.50
2018-10-05T08:34:13.666Z,13.85
2018-10-05T08:36:42.337Z,10.43
2018-10-05T08:39:11.985Z,8.95
2018-10-05T08:41:40.371Z,8.80
2018-10-05T08:44:09.049Z,8.60
2018-10-05T08:46:37.331Z,8.85
2018-10-05T08:49:05.998Z,8.60
2018-10-05T08:51:34.328Z,8.18
2018-10-05T08:54:02.606Z,7.67
2018-10-05T08:56:31.503Z,8.30
2018-10-05T08:58:59.744Z,8.15
2018-10-05T09:01:27.929Z,8.63
2018-10-05T09:03:56.176Z,8.23
2018-10-05T09:06:24.415Z,7.67
2018-10-05T09:08:52.680Z,7.53
2018-10-05T09:11:20.989Z,8.03
2018-10-05T09:13:50.708Z,8.25
2018-10-05T09:16:19.059Z,8.97
2018-10-05T09:18:47.721Z,9.63
2018-10-05T09:21:16.072Z,7.97
2018-10-05T09:23:44.542Z,8.43
2018-10-05T09:26:13.189Z,8.78
2018-10-05T09:28:41.662Z,8.43
2018-10-05T09:31:11.358Z,8.38
2018-10-05T09:33:39.760Z,10.30
2018-10-05T09:36:08.317Z,6.80
2018-10-05T09:38:36.556Z,7.13
2018-10-05T09:41:04.801Z,7.25
2018-10-05T09:43:34.123Z,11.15
2018-10-05T09:46:03.069Z,8.80
2018-10-05T09:48:31.376Z,8.93
2018-10-05T09:50:59.760Z,6.95
2018-10-05T09:53:28.731Z,10.15
2018-10-05T09:55:57.214Z,7.28
2018-10-05T09:58:26.112Z,7.90
2018-10-05T10:00:59.897Z,6.22
2018-10-05T10:03:34.478Z,6.83
2018-10-05T10:06:03.316Z,5.33
2018-10-05T10:08:31.798Z,5.87
2018-10-05T10:11:00.969Z,5.58
2018-10-05T10:13:29.256Z,6.12
2018-10-05T10:15:57.540Z,7.80
2018-10-05T10:18:26.011Z,6.75
2018-10-05T10:20:54.243Z,5.00
2018-10-05T10:23:22.489Z,7.60
2018-10-05T10:25:51.138Z,5.80
2018-10-05T10:28:19.556Z,5.85
2018-10-05T10:30:47.859Z,5.03
2018-10-05T10:33:16.372Z,5.45
2018-10-05T10:35:44.821Z,5.35
2018-10-05T10:38:13.675Z,4.40
2018-10-05T10:40:42.198Z,4.58
2018-10-05T10:43:10.462Z,4.30
2018-10-05T10:45:38.768Z,4.85
2018-10-05T10:48:07.112Z,4.20
2018-10-05T10:50:35.283Z,4.28
2018-10-05T10:53:03.694Z,4.22
2018-10-05T10:55:32.255Z,4.55
2018-10-05T10:58:00.496Z,4.80
2018-10-05T11:00:28.757Z,4.92
2018-10-05T11:02:57.205Z,5.35
2018-10-05T11:05:25.659Z,4.20
2018-10-05T11:07:53.919Z,4.17
2018-10-05T11:10:26.880Z,4.30
2018-10-05T11:12:56.749Z,4.87
2018-10-05T11:15:25.227Z,5.42
2018-10-05T11:17:53.424Z,4.62
2018-10-05T11:20:21.761Z,5.17
2018-10-05T11:22:50.128Z,4.90
2018-10-05T11:25:18.428Z,4.37
2018-10-05T11:27:46.716Z,3.98
2018-10-05T11:30:15.013Z,3.80
2018-10-05T11:32:43.313Z,4.10
2018-10-05T11:35:11.650Z,4.00
2018-10-05T11:37:39.952Z,4.12
2018-10-05T11:40:08.200Z,3.65
2018-10-05T11:42:36.455Z,3.23
2018-10-05T11:45:04.783Z,3.20
2018-10-05T11:47:33.220Z,3.50
2018-10-05T11:50:01.542Z,3.00
2018-10-05T11:52:29.904Z,3.03
2018-10-05T11:54:58.472Z,2.55
2018-10-05T11:57:26.953Z,3.10
2018-10-05T11:59:55.379Z,3.00
2018-10-05T12:02:23.871Z,2.42
2018-10-05T12:04:52.579Z,2.90
2018-10-05T12:07:21.774Z,3.37
2018-10-05T12:09:49.987Z,3.10
2018-10-05T12:12:19.276Z,3.20
2018-10-05T12:14:47.455Z,3.95
2018-10-05T12:17:15.761Z,3.27
2018-10-05T12:19:44.127Z,2.60
2018-10-05T12:22:12.593Z,2.30
2018-10-05T12:24:42.136Z,3.33
2018-10-05T12:27:10.444Z,3.62
2018-10-05T12:29:38.604Z,3.42
2018-10-05T12:32:06.924Z,4.42
2018-10-05T12:34:35.296Z,5.78
2018-10-05T12:37:03.480Z,2.98
2018-10-05T12:39:31.653Z,3.50
2018-10-05T12:41:59.911Z,2.80
2018-10-05T12:44:28.056Z,8.55
2018-10-05T12:46:56.260Z,4.45
2018-10-05T12:49:24.441Z,2.83
2018-10-05T12:51:52.730Z,2.22
2018-10-05T12:54:21.055Z,4.67
2018-10-05T12:56:49.334Z,2.12
2018-10-05T12:59:18.251Z,2.00
2018-10-05T13:01:46.464Z,2.12
2018-10-05T13:04:14.663Z,4.28
2018-10-05T13:06:42.904Z,1.75
2018-10-05T13:09:11.104Z,4.95
2018-10-05T13:11:39.290Z,2.58
2018-10-05T13:14:11.181Z,4.37
2018-10-05T13:16:39.459Z,2.98
2018-10-05T13:19:07.633Z,2.65
2018-10-05T13:21:35.880Z,2.40
2018-10-05T13:24:04.742Z,2.72
2018-10-05T13:26:33.209Z,3.45
2018-10-05T13:29:02.510Z,2.98
2018-10-05T13:31:30.712Z,2.72
2018-10-05T13:33:59.017Z,1.57
2018-10-05T13:36:27.229Z,2.70
2018-10-05T13:38:55.577Z,2.30
2018-10-05T13:41:23.800Z,2.17
2018-10-05T13:43:51.983Z,2.42
2018-10-05T13:46:20.259Z,2.10
2018-10-05T13:48:48.484Z,1.90
2018-10-05T13:51:16.671Z,2.00
2018-10-05T13:53:44.861Z,1.70
2018-10-05T13:56:13.212Z,1.90
2018-10-05T13:58:41.641Z,1.90
2018-10-05T14:01:09.858Z,4.28
2018-10-05T14:03:38.031Z,4.85
2018-10-05T14:06:06.431Z,2.70
2018-10-05T14:08:34.812Z,1.95
2018-10-05T14:11:03.092Z,2.35
2018-10-05T14:13:31.268Z,1.80
2018-10-05T14:15:59.671Z,1.70
2018-10-05T14:18:27.874Z,1.77
2018-10-05T14:20:56.163Z,1.55
2018-10-05T14:23:24.415Z,1.47
2018-10-05T14:25:52.955Z,1.42
2018-10-05T14:28:21.141Z,1.80
2018-10-05T14:30:49.646Z,1.62
2018-10-05T14:33:18.330Z,1.55
2018-10-05T14:35:46.711Z,1.77
2018-10-05T14:38:15.064Z,2.83
2018-10-05T14:40:43.498Z,2.23
2018-10-05T14:43:11.677Z,2.22
2018-10-05T14:45:40.233Z,2.70
2018-10-05T14:48:08.576Z,2.70
2018-10-05T14:50:36.999Z,2.50
2018-10-05T14:53:05.291Z,2.10
2018-10-05T14:55:33.631Z,2.60
2018-10-05T14:58:02.049Z,2.35
2018-10-05T15:00:30.198Z,1.98
2018-10-05T15:02:58.518Z,1.77
2018-10-05T15:05:26.821Z,1.80
2018-10-05T15:07:55.064Z,2.20
2018-10-05T15:10:23.306Z,1.90
2018-10-05T15:12:51.581Z,2.10
2018-10-05T15:15:19.659Z,1.65
2018-10-05T15:17:47.888Z,1.90
2018-10-05T15:20:16.202Z,2.30
2018-10-05T15:22:44.380Z,1.87
2018-10-05T15:25:12.879Z,1.72
2018-10-05T15:27:41.116Z,2.00
2018-10-05T15:30:09.393Z,2.17
2018-10-05T15:32:37.893Z,2.52
2018-10-05T15:38:09.068Z,1.80
2018-10-05T15:40:37.234Z,2.12
2018-10-05T15:43:05.598Z,2.50
2018-10-05T15:45:33.831Z,2.25
2018-10-05T15:48:02.149Z,3.42
2018-10-05T15:50:30.562Z,12.80
2018-10-05T15:52:58.795Z,4.20
2018-10-05T15:55:27.180Z,2.92
2018-10-05T15:57:55.677Z,2.62
2018-10-05T16:00:23.872Z,2.60
2018-10-05T16:02:52.422Z,2.42
2018-10-05T16:05:20.785Z,2.27
2018-10-05T16:07:49.211Z,1.92
2018-10-05T16:10:18.588Z,2.10
2018-10-05T16:12:47.097Z,2.42
2018-10-05T16:15:17.393Z,2.50
2018-10-05T16:17:47.218Z,2.47
2018-10-05T16:20:16.062Z,3.12
2018-10-05T16:22:45.298Z,2.65
2018-10-05T16:25:17.570Z,2.60
2018-10-05T16:27:45.839Z,2.77
2018-10-05T16:30:14.036Z,3.10
2018-10-05T16:32:42.319Z,3.00
2018-10-05T16:35:10.831Z,4.40
2018-10-05T16:37:39.007Z,3.45
2018-10-05T16:40:07.379Z,4.33
2018-10-05T16:42:35.907Z,3.00
2018-10-05T16:45:04.588Z,4.40
2018-10-05T16:47:33.083Z,3.10
2018-10-05T16:50:01.514Z,2.83
2018-10-05T16:52:30.167Z,3.42
2018-10-05T16:54:58.768Z,3.02
2018-10-05T16:57:27.675Z,3.67
2018-10-05T16:59:55.951Z,3.22
2018-10-05T17:02:24.641Z,4.05
2018-10-05T17:04:52.903Z,4.47
2018-10-05T17:07:21.279Z,4.33
2018-10-05T17:09:49.639Z,3.27
2018-10-05T17:12:18.664Z,2.80
2018-10-05T17:14:46.868Z,2.55
2018-10-05T17:17:15.270Z,3.17
2018-10-05T17:19:43.491Z,3.40
2018-10-05T17:22:11.955Z,3.45
2018-10-05T17:24:41.285Z,3.35
2018-10-05T17:27:09.655Z,4.37
2018-10-05T17:29:37.905Z,4.33
2018-10-05T17:32:06.480Z,4.72
2018-10-05T17:34:35.106Z,6.00
2018-10-05T17:37:03.264Z,5.67
2018-10-05T17:39:31.548Z,7.73
2018-10-05T17:41:59.788Z,9.70
2018-10-05T17:44:28.066Z,8.30
2018-10-05T17:46:56.572Z,6.47
2018-10-05T17:49:25.355Z,6.97
2018-10-05T17:51:53.832Z,6.45
2018-10-05T17:54:22.419Z,5.50
2018-10-05T17:56:50.951Z,9.10
2018-10-05T17:59:19.315Z,11.00
2018-10-05T18:01:47.597Z,7.50
2018-10-05T18:04:15.828Z,8.93
2018-10-05T18:06:44.099Z,6.00
2018-10-05T18:09:12.484Z,5.20
2018-10-05T18:11:41.867Z,5.85
2018-10-05T18:14:10.433Z,5.25
2018-10-05T18:16:38.740Z,4.97
2018-10-05T18:19:07.118Z,5.10
2018-10-05T18:21:35.615Z,6.17
2018-10-05T18:24:04.405Z,6.35
2018-10-05T18:26:32.752Z,4.53
2018-10-05T18:29:01.096Z,5.15
2018-10-05T18:31:29.409Z,5.70
2018-10-05T18:33:57.701Z,7.45
2018-10-05T18:36:26.325Z,6.57
2018-10-05T18:38:54.632Z,5.50
2018-10-05T18:41:22.970Z,5.86
2018-10-05T18:43:51.433Z,6.37
2018-10-05T18:46:19.986Z,6.65
2018-10-05T18:48:48.882Z,6.78
2018-10-05T18:51:17.273Z,6.22
2018-10-05T18:53:45.763Z,5.10
2018-10-05T18:56:25.600Z,6.25
2018-10-05T18:58:54.539Z,6.42
2018-10-05T19:01:22.975Z,6.15
2018-10-05T19:03:51.367Z,6.95
2018-10-05T19:06:19.986Z,6.53
2018-10-05T19:08:48.333Z,5.70
2018-10-05T19:11:16.960Z,7.12
2018-10-05T19:13:45.387Z,5.45
2018-10-05T19:16:13.883Z,7.15
2018-10-05T19:18:42.502Z,7.20
2018-10-05T19:21:11.102Z,7.78
2018-10-05T19:23:39.359Z,6.40
2018-10-05T19:26:07.795Z,6.97
2018-10-05T19:28:36.117Z,6.85
2018-10-05T19:31:05.008Z,6.53
2018-10-05T19:33:33.412Z,5.47
2018-10-05T19:36:01.964Z,5.90
2018-10-05T19:38:30.340Z,6.17
2018-10-05T19:40:59.310Z,6.10
2018-10-05T19:43:27.850Z,6.50
2018-10-05T19:45:56.228Z,5.65
2018-10-05T19:48:24.618Z,8.15
2018-10-05T19:50:53.045Z,6.33
2018-10-05T19:53:21.481Z,6.15
2018-10-05T19:55:50.045Z,6.45
2018-10-05T19:58:19.392Z,6.55
2018-10-05T20:00:48.053Z,6.35
2018-10-05T20:03:16.407Z,7.00
2018-10-05T20:05:44.719Z,5.97
2018-10-05T20:08:13.036Z,6.08
2018-10-05T20:10:41.540Z,5.97
2018-10-05T20:13:09.749Z,6.17
2018-10-05T20:15:38.027Z,5.80
2018-10-05T20:18:06.725Z,7.47
2018-10-05T20:20:34.889Z,6.97
2018-10-05T20:23:03.222Z,6.22
2018-10-05T20:25:31.830Z,5.83
2018-10-05T20:28:00.018Z,5.83
2018-10-05T20:30:28.303Z,5.83
2018-10-05T20:32:56.978Z,5.90
2018-10-05T20:35:25.223Z,6.22
2018-10-05T20:37:53.551Z,6.33
2018-10-05T20:40:21.848Z,5.83
2018-10-05T20:42:50.246Z,6.15
2018-10-05T20:45:18.708Z,6.35
2018-10-05T20:47:47.575Z,6.05
2018-10-05T20:50:15.920Z,5.95
2018-10-05T20:52:44.100Z,6.17
2018-10-05T20:55:12.411Z,5.80
2018-10-05T20:57:40.780Z,6.37
2018-10-05T21:00:09.087Z,6.78
2018-10-05T21:02:37.609Z,5.70
2018-10-05T21:05:05.953Z,5.85
2018-10-05T21:07:34.160Z,5.62
2018-10-05T21:10:02.569Z,6.08
2018-10-05T21:12:30.777Z,5.85
2018-10-05T21:14:59.249Z,5.80
2018-10-05T21:17:27.438Z,5.70
2018-10-05T21:22:30.644Z,6.00
2018-10-05T21:24:58.919Z,5.80
2018-10-05T21:27:27.170Z,6.53
2018-10-05T21:29:56.244Z,6.10
2018-10-05T21:32:24.625Z,6.17
2018-10-05T21:34:52.844Z,6.28
2018-10-05T21:37:21.181Z,5.60
2018-10-05T21:39:49.499Z,6.60
2018-10-05T21:42:18.770Z,6.95
2018-10-05T21:44:47.055Z,6.72
2018-10-05T21:47:15.854Z,6.35
2018-10-05T21:49:44.232Z,6.58
2018-10-05T21:52:13.135Z,6.10
2018-10-05T21:54:41.404Z,6.70
2018-10-05T21:57:09.787Z,6.75
2018-10-05T21:59:38.220Z,7.22
2018-10-05T22:02:06.560Z,6.20
2018-10-05T22:04:34.800Z,6.53
2018-10-05T22:07:03.071Z,7.00
2018-10-05T22:09:31.333Z,6.00
2018-10-05T22:11:59.705Z,5.87
2018-10-05T22:14:28.025Z,6.33
2018-10-05T22:16:56.329Z,6.53
2018-10-05T22:19:24.788Z,6.10
2018-10-05T22:21:53.131Z,6.28
2018-10-05T22:24:21.392Z,7.12
2018-10-05T22:26:49.624Z,7.58
2018-10-05T22:29:19.285Z,6.97
2018-10-05T22:31:47.680Z,7.10
2018-10-05T22:34:15.888Z,6.28
2018-10-05T22:36:44.080Z,6.33
2018-10-05T22:39:12.389Z,6.60
2018-10-05T22:41:40.614Z,6.80
2018-10-05T22:44:08.884Z,7.22
2018-10-05T22:46:37.331Z,7.40
2018-10-05T22:49:06.042Z,6.75
2018-10-05T22:51:34.337Z,6.58
2018-10-05T22:54:02.657Z,6.75
2018-10-05T22:56:30.935Z,6.67
2018-10-05T22:58:59.212Z,7.30
2018-10-05T23:01:27.421Z,7.62
2018-10-05T23:03:55.576Z,6.87
2018-10-05T23:06:23.887Z,6.33
2018-10-05T23:08:52.867Z,6.85
2018-10-05T23:11:21.219Z,7.30
2018-10-05T23:13:49.534Z,6.45
2018-10-05T23:16:18.002Z,6.67
2018-10-05T23:18:46.251Z,6.35
2018-10-05T23:21:14.423Z,7.00
2018-10-05T23:23:42.630Z,6.08
2018-10-05T23:26:10.984Z,7.33
2018-10-05T23:28:39.385Z,6.92
2018-10-05T23:31:07.619Z,6.53
2018-10-05T23:33:35.893Z,7.47
2018-10-05T23:36:04.156Z,7.10
2018-10-05T23:38:32.355Z,6.50
2018-10-05T23:41:00.893Z,7.05
2018-10-05T23:43:30.330Z,7.30
2018-10-05T23:45:58.616Z,6.30
2018-10-05T23:48:26.816Z,6.22
2018-10-05T23:50:54.989Z,7.12
2018-10-05T23:53:23.185Z,7.72
2018-10-05T23:55:51.515Z,7.60
2018-10-05T23:58:20.295Z,6.83
